createdAt,value
2023-04-07T00:02:14.706Z,18.50
2023-04-07T00:04:41.811Z,16.38
2023-04-07T00:07:08.774Z,17.58
2023-04-07T00:09:36.931Z,18.02
2023-04-07T00:12:04.111Z,22.70
2023-04-07T00:14:31.204Z,19.60
2023-04-07T00:16:58.194Z,17.17
2023-04-07T00:19:25.369Z,20.65
2023-04-07T00:21:52.338Z,18.48
2023-04-07T00:24:31.006Z,17.52
2023-04-07T00:27:01.083Z,21.75
2023-04-07T00:29:28.195Z,19.95
2023-04-07T00:31:55.375Z,20.23
2023-04-07T00:34:22.311Z,17.15
2023-04-07T00:36:52.430Z,17.92
2023-04-07T00:39:20.711Z,18.40
2023-04-07T00:41:48.290Z,16.77
2023-04-07T00:44:15.372Z,18.35
2023-04-07T00:46:42.554Z,19.33
2023-04-07T00:49:11.369Z,31.02
2023-04-07T00:51:38.577Z,19.27
2023-04-07T00:54:06.155Z,18.65
2023-04-07T00:56:33.238Z,18.27
2023-04-07T00:59:00.671Z,18.42
2023-04-07T01:01:41.197Z,18.20
2023-04-07T01:04:45.071Z,18.10
2023-04-07T01:07:18.798Z,20.17
2023-04-07T01:10:05.737Z,20.73
2023-04-07T01:12:47.712Z,22.63
2023-04-07T01:15:18.395Z,25.80
2023-04-07T01:17:53.298Z,15.38
2023-04-07T01:20:24.655Z,17.98
2023-04-07T01:23:02.604Z,16.65
2023-04-07T01:25:38.698Z,19.13
2023-04-07T01:28:26.961Z,19.52
2023-04-07T01:30:58.849Z,22.75
2023-04-07T01:33:30.387Z,18.35
2023-04-07T01:36:00.048Z,17.33
2023-04-07T01:38:30.084Z,20.00
2023-04-07T01:40:59.123Z,20.60
2023-04-07T01:43:28.458Z,17.50
2023-04-07T01:45:57.208Z,17.75
2023-04-07T01:48:27.336Z,17.95
2023-04-07T01:50:56.183Z,17.17
2023-04-07T01:53:24.030Z,23.48
2023-04-07T01:55:52.350Z,20.10
2023-04-07T01:58:19.288Z,19.02
2023-04-07T02:00:48.574Z,18.02
2023-04-07T02:03:24.206Z,19.63
2023-04-07T02:08:28.840Z,19.35
2023-04-07T02:10:59.581Z,17.40
2023-04-07T02:13:30.993Z,16.30
2023-04-07T02:15:59.092Z,18.92
2023-04-07T02:18:28.101Z,20.10
2023-04-07T02:20:56.404Z,19.50
2023-04-07T02:23:23.306Z,21.05
2023-04-07T02:25:50.344Z,18.55
2023-04-07T02:28:17.474Z,18.77
2023-04-07T02:30:46.098Z,18.60
2023-04-07T02:33:13.012Z,19.35
2023-04-07T02:35:39.868Z,20.88
2023-04-07T02:38:06.793Z,19.58
2023-04-07T02:40:36.690Z,18.80
2023-04-07T02:43:05.090Z,19.60
2023-04-07T02:45:32.044Z,18.13
2023-04-07T02:47:58.964Z,17.75
2023-04-07T02:50:26.190Z,21.67
2023-04-07T02:52:53.160Z,18.88
2023-04-07T02:55:20.211Z,17.42
2023-04-07T02:57:47.243Z,19.30
2023-04-07T03:00:40.458Z,16.92
2023-04-07T03:03:14.004Z,19.35
2023-04-07T03:05:55.558Z,26.75
2023-04-07T03:08:22.639Z,16.83
2023-04-07T03:10:49.751Z,21.73
2023-04-07T03:13:22.618Z,18.95
2023-04-07T03:15:49.494Z,18.35
2023-04-07T03:18:18.354Z,18.83
2023-04-07T03:20:48.338Z,19.05
2023-04-07T03:23:16.785Z,17.77
2023-04-07T03:25:46.833Z,22.40
2023-04-07T03:28:14.855Z,18.57
2023-04-07T03:30:41.876Z,17.63
2023-04-07T03:33:09.519Z,19.55
2023-04-07T03:35:36.634Z,20.70
2023-04-07T03:38:03.975Z,16.73
2023-04-07T03:40:31.060Z,21.20
2023-04-07T03:42:58.638Z,18.33
2023-04-07T03:45:25.592Z,20.48
2023-04-07T03:47:54.266Z,18.20
2023-04-07T03:50:22.234Z,19.52
2023-04-07T03:53:14.571Z,19.85
2023-04-07T03:55:41.947Z,20.45
2023-04-07T03:58:17.616Z,21.42
2023-04-07T04:00:47.400Z,19.50
2023-04-07T04:03:14.572Z,24.00
2023-04-07T04:05:55.378Z,28.10
2023-04-07T04:08:29.298Z,25.73
2023-04-07T04:10:56.750Z,27.25
2023-04-07T04:13:27.853Z,21.85
2023-04-07T04:15:57.247Z,17.98
2023-04-07T04:18:24.354Z,18.10
2023-04-07T04:20:53.558Z,23.55
2023-04-07T04:23:21.279Z,21.60
2023-04-07T04:25:50.930Z,23.08
2023-04-07T04:28:19.042Z,21.08
2023-04-07T04:30:46.492Z,21.63
2023-04-07T04:33:13.798Z,19.98
2023-04-07T04:35:49.234Z,20.15
2023-04-07T04:38:20.741Z,19.02
2023-04-07T04:40:54.808Z,21.23
2023-04-07T04:43:27.103Z,17.58
2023-04-07T04:45:56.236Z,21.20
2023-04-07T04:48:27.378Z,19.20
2023-04-07T04:50:54.479Z,17.85
2023-04-07T04:53:22.406Z,17.00
2023-04-07T04:55:54.863Z,18.95
2023-04-07T04:58:25.139Z,21.40
2023-04-07T05:00:58.313Z,18.83
2023-04-07T05:03:34.251Z,17.13
2023-04-07T05:06:04.871Z,16.80
2023-04-07T05:08:33.030Z,20.33
2023-04-07T05:11:01.503Z,21.48
2023-04-07T05:13:34.408Z,20.08
2023-04-07T05:16:04.141Z,23.67
2023-04-07T05:18:31.578Z,18.25
2023-04-07T05:21:01.921Z,18.05
2023-04-07T05:23:29.965Z,18.73
2023-04-07T05:25:57.356Z,18.08
2023-04-07T05:28:25.523Z,18.75
2023-04-07T05:30:55.758Z,13.48
2023-04-07T05:33:28.167Z,18.40
2023-04-07T05:35:56.406Z,21.10
2023-04-07T05:38:23.977Z,18.25
2023-04-07T05:40:55.875Z,14.57
2023-04-07T05:43:30.956Z,18.00
2023-04-07T05:46:00.734Z,18.25
2023-04-07T05:48:28.401Z,20.58
2023-04-07T05:50:56.202Z,19.25
2023-04-07T05:53:23.389Z,23.25
2023-04-07T05:55:50.529Z,23.13
2023-04-07T05:58:39.508Z,23.33
2023-04-07T06:01:06.701Z,27.67
2023-04-07T06:03:33.848Z,25.80
2023-04-07T06:06:29.991Z,25.63
2023-04-07T06:08:57.123Z,24.00
2023-04-07T06:11:26.625Z,22.55
2023-04-07T06:13:53.654Z,22.75
2023-04-07T06:16:20.944Z,19.55
2023-04-07T06:18:47.965Z,20.15
2023-04-07T06:21:15.565Z,21.17
2023-04-07T06:23:42.660Z,19.13
2023-04-07T06:26:13.251Z,17.20
2023-04-07T06:28:40.796Z,21.98
2023-04-07T06:31:08.896Z,22.60
2023-04-07T06:33:37.311Z,23.77
2023-04-07T06:36:10.750Z,23.95
2023-04-07T06:38:38.387Z,23.02
2023-04-07T06:41:06.794Z,22.10
2023-04-07T06:43:33.742Z,23.65
2023-04-07T06:46:06.433Z,20.60
2023-04-07T06:48:33.402Z,22.40
2023-04-07T06:51:05.118Z,23.65
2023-04-07T06:53:32.161Z,22.05
2023-04-07T06:56:12.985Z,24.08
2023-04-07T06:58:40.589Z,22.15
2023-04-07T07:01:09.445Z,26.55
2023-04-07T07:28:48.626Z,21.13
2023-04-07T07:35:07.308Z,22.90
2023-04-07T07:43:09.850Z,26.77
2023-04-07T07:52:21.171Z,20.00
2023-04-07T07:54:52.376Z,22.77
2023-04-07T08:10:50.326Z,22.48
2023-04-07T08:27:04.730Z,26.10
2023-04-07T08:29:41.226Z,28.30
2023-04-07T08:35:17.700Z,26.48
2023-04-07T08:50:49.328Z,26.85
2023-04-07T09:59:41.319Z,28.50
2023-04-07T10:02:42.463Z,30.48
2023-04-07T10:11:58.315Z,28.08
2023-04-07T10:15:10.762Z,32.38
2023-04-07T10:24:55.371Z,28.98
2023-04-07T10:27:36.979Z,32.40
2023-04-07T10:30:12.282Z,29.58
2023-04-07T10:32:49.729Z,29.52
2023-04-07T10:35:18.845Z,33.40
2023-04-07T10:38:11.065Z,28.17
2023-04-07T10:40:41.072Z,31.45
2023-04-07T10:43:12.877Z,29.52
2023-04-07T10:48:40.554Z,44.72
2023-04-07T11:30:03.037Z,28.38
2023-04-07T11:35:19.276Z,24.45
2023-04-07T11:50:41.665Z,35.53
2023-04-07T11:53:11.455Z,27.17
2023-04-07T11:55:42.990Z,32.47
2023-04-07T11:58:12.658Z,26.40
2023-04-07T12:04:00.122Z,30.67
2023-04-07T12:06:35.688Z,34.17
2023-04-07T12:12:06.508Z,29.80
2023-04-07T12:15:00.573Z,28.70
2023-04-07T12:17:27.905Z,32.50
2023-04-07T12:19:55.353Z,32.05
2023-04-07T12:22:22.453Z,30.83
2023-04-07T12:25:51.332Z,59.30
2023-04-07T12:28:22.657Z,45.08
2023-04-07T12:30:49.748Z,30.08
2023-04-07T12:33:17.281Z,37.03
2023-04-07T12:35:45.949Z,30.48
2023-04-07T12:41:16.558Z,32.42
2023-04-07T12:43:47.077Z,33.22
2023-04-07T12:50:09.066Z,31.55
2023-04-07T12:53:05.947Z,35.58
2023-04-07T12:55:33.780Z,34.80
2023-04-07T12:58:01.107Z,31.25
2023-04-07T13:00:28.300Z,35.65
2023-04-07T13:02:55.790Z,44.70
2023-04-07T13:05:24.146Z,29.08
2023-04-07T13:07:53.307Z,35.40
2023-04-07T13:10:21.514Z,33.28
2023-04-07T13:12:49.004Z,32.60
2023-04-07T13:15:16.138Z,33.13
2023-04-07T13:17:43.282Z,32.65
2023-04-07T13:20:11.022Z,37.03
2023-04-07T13:23:13.323Z,31.02
2023-04-07T13:26:31.596Z,31.80
2023-04-07T13:28:58.664Z,33.20
2023-04-07T13:31:25.808Z,31.90
2023-04-07T13:33:53.110Z,31.85
2023-04-07T13:36:23.153Z,31.20
2023-04-07T13:38:50.536Z,31.40
2023-04-07T13:41:17.562Z,36.20
2023-04-07T13:47:11.126Z,32.22
2023-04-07T13:49:38.232Z,30.17
2023-04-07T13:52:09.720Z,34.97
2023-04-07T13:54:37.255Z,30.08
2023-04-07T13:57:04.688Z,31.48
2023-04-07T13:59:31.731Z,33.40
2023-04-07T14:02:11.367Z,31.33
2023-04-07T14:04:38.970Z,35.05
2023-04-07T14:07:06.098Z,35.33
2023-04-07T14:09:33.306Z,33.38
2023-04-07T14:12:00.352Z,34.08
2023-04-07T14:14:30.092Z,32.92
2023-04-07T14:16:57.854Z,35.83
2023-04-07T14:19:24.734Z,33.63
2023-04-07T14:21:52.032Z,33.83
2023-04-07T14:24:19.099Z,31.73
2023-04-07T14:26:46.692Z,33.70
2023-04-07T14:29:14.154Z,34.60
2023-04-07T14:31:41.163Z,30.88
2023-04-07T14:34:08.861Z,33.05
2023-04-07T14:36:36.004Z,36.67
2023-04-07T14:39:03.936Z,35.20
2023-04-07T14:41:31.612Z,33.22
2023-04-07T14:43:58.746Z,36.63
2023-04-07T14:46:29.656Z,37.13
2023-04-07T14:49:03.134Z,40.30
2023-04-07T14:51:30.301Z,40.08
2023-04-07T14:53:57.727Z,36.47
2023-04-07T14:56:25.513Z,35.60
2023-04-07T14:58:55.524Z,38.97
2023-04-07T15:01:22.679Z,35.35
2023-04-07T15:03:52.188Z,37.35
2023-04-07T15:06:19.954Z,35.30
2023-04-07T15:08:47.239Z,34.45
2023-04-07T15:11:14.161Z,34.58
2023-04-07T15:13:41.141Z,34.28
2023-04-07T15:16:12.799Z,36.75
2023-04-07T15:18:42.587Z,34.67
2023-04-07T15:21:10.733Z,32.65
2023-04-07T15:23:43.208Z,34.00
2023-04-07T15:26:11.997Z,38.22
2023-04-07T15:28:39.459Z,34.05
2023-04-07T15:31:10.076Z,36.35
2023-04-07T15:33:39.248Z,37.47
2023-04-07T15:36:08.371Z,33.40
2023-04-07T15:38:35.859Z,37.25
2023-04-07T15:41:02.836Z,39.33
2023-04-07T15:43:29.903Z,37.15
2023-04-07T15:45:57.059Z,36.25
2023-04-07T15:48:24.332Z,35.22
2023-04-07T15:50:52.883Z,38.08
2023-04-07T15:53:19.978Z,34.83
2023-04-07T15:55:48.515Z,35.40
2023-04-07T15:58:16.301Z,36.60
2023-04-07T16:00:43.616Z,37.20
2023-04-07T16:03:10.815Z,35.65
2023-04-07T16:05:38.571Z,42.10
2023-04-07T16:08:08.817Z,37.08
2023-04-07T18:09:05.975Z,54.25
2023-04-07T18:15:15.904Z,47.60
2023-04-07T19:05:55.314Z,51.53
2023-04-07T19:08:22.513Z,43.72
2023-04-07T19:10:51.060Z,44.10
2023-04-07T19:13:20.552Z,41.33
2023-04-07T19:15:51.039Z,40.33
2023-04-07T19:18:18.838Z,39.92
2023-04-07T19:20:51.754Z,40.50
2023-04-07T19:23:18.778Z,47.13
2023-04-07T19:25:47.278Z,39.67
2023-04-07T19:28:15.563Z,50.55
2023-04-07T19:30:43.648Z,43.13
2023-04-07T19:33:12.105Z,42.60
2023-04-07T19:35:43.635Z,43.80
2023-04-07T19:38:10.754Z,46.10
2023-04-07T19:40:37.783Z,41.45
2023-04-07T19:43:04.890Z,44.47
2023-04-07T19:45:31.905Z,41.90
2023-04-07T19:48:00.235Z,43.72
2023-04-07T19:50:28.536Z,40.88
2023-04-07T19:52:55.663Z,43.38
2023-04-07T19:55:22.741Z,41.78
2023-04-07T19:57:49.831Z,43.13
2023-04-07T20:00:17.032Z,43.67
2023-04-07T20:02:50.756Z,43.45
2023-04-07T20:05:19.815Z,42.13
2023-04-07T20:07:49.067Z,42.53
2023-04-07T20:10:16.195Z,43.88
2023-04-07T20:12:43.164Z,40.45
2023-04-07T20:15:10.477Z,36.17
2023-04-07T20:17:37.582Z,38.35
2023-04-07T20:20:07.743Z,39.90
2023-04-07T20:22:35.450Z,32.17
2023-04-07T20:25:05.510Z,36.63
2023-04-07T20:27:33.559Z,35.78
2023-04-07T20:30:02.220Z,36.53
2023-04-07T20:32:29.468Z,35.78
2023-04-07T20:34:56.454Z,40.45
2023-04-07T20:37:23.422Z,38.58
2023-04-07T20:39:50.434Z,36.42
2023-04-07T20:42:19.528Z,37.20
2023-04-07T20:44:48.729Z,35.35
2023-04-07T20:47:15.707Z,35.13
2023-04-07T20:49:43.963Z,36.67
2023-04-07T20:52:11.219Z,35.28
2023-04-07T20:54:38.410Z,33.40
2023-04-07T20:57:05.464Z,39.58
2023-04-07T20:59:32.925Z,42.40
2023-04-07T21:02:00.007Z,39.60
2023-04-07T21:04:27.486Z,41.72
2023-04-07T21:06:56.643Z,36.65
2023-04-07T21:09:23.761Z,35.17
2023-04-07T21:11:50.811Z,33.90
2023-04-07T21:14:17.821Z,31.90
2023-04-07T21:16:44.687Z,33.00
2023-04-07T21:19:11.886Z,34.90
2023-04-07T21:21:38.835Z,37.20
2023-04-07T21:24:05.929Z,38.30
2023-04-07T21:26:32.979Z,36.28
2023-04-07T21:29:00.009Z,32.38
2023-04-07T21:31:27.062Z,33.95
2023-04-07T21:33:54.198Z,35.47
2023-04-07T21:36:21.379Z,35.55
2023-04-07T21:38:48.486Z,32.72
2023-04-07T21:41:15.648Z,32.08
2023-04-07T21:43:42.616Z,30.77
2023-04-07T21:46:09.762Z,28.38
2023-04-07T21:48:36.875Z,27.30
2023-04-07T21:51:08.123Z,32.55
2023-04-07T21:53:38.119Z,29.70
2023-04-07T21:56:05.379Z,29.38
2023-04-07T21:58:32.392Z,27.15
2023-04-07T22:01:00.013Z,27.65
2023-04-07T22:03:29.484Z,26.00
2023-04-07T22:06:01.185Z,29.23
2023-04-07T22:08:28.393Z,30.45
2023-04-07T22:10:55.497Z,24.52
2023-04-07T22:13:22.383Z,26.60
2023-04-07T22:15:50.243Z,26.30
2023-04-07T22:18:17.267Z,24.73
2023-04-07T22:20:45.190Z,25.70
2023-04-07T22:23:12.242Z,24.90
2023-04-07T22:25:39.122Z,31.02
2023-04-07T22:28:06.147Z,25.77
2023-04-07T22:30:33.199Z,31.85
2023-04-07T22:33:00.192Z,24.92
2023-04-07T22:35:27.365Z,27.27
2023-04-07T22:37:54.497Z,23.25
2023-04-07T22:40:21.890Z,26.15
2023-04-07T22:42:48.907Z,26.48
2023-04-07T22:45:16.030Z,27.85
2023-04-07T22:47:43.230Z,24.50
2023-04-07T22:50:10.620Z,25.50
2023-04-07T22:52:37.651Z,26.23
2023-04-07T22:55:05.182Z,25.88
2023-04-07T22:57:32.296Z,23.80
2023-04-07T22:59:59.246Z,23.88
2023-04-07T23:02:26.891Z,22.55
2023-04-07T23:04:55.302Z,26.35
2023-04-07T23:07:22.243Z,21.73
2023-04-07T23:09:51.087Z,21.38
2023-04-07T23:12:19.016Z,24.02
2023-04-07T23:14:46.019Z,24.20
2023-04-07T23:17:13.193Z,22.60
2023-04-07T23:19:40.343Z,19.42
2023-04-07T23:22:07.328Z,21.15
2023-04-07T23:24:34.251Z,20.88
2023-04-07T23:27:02.005Z,19.00
2023-04-07T23:29:28.988Z,23.02
2023-04-07T23:31:55.981Z,20.25
2023-04-07T23:34:22.902Z,19.80
2023-04-07T23:36:49.827Z,21.25
2023-04-07T23:39:16.866Z,19.10
2023-04-07T23:41:44.089Z,21.23
2023-04-07T23:44:11.202Z,19.42
2023-04-07T23:46:38.252Z,19.88
2023-04-07T23:49:05.130Z,18.60
2023-04-07T23:51:32.137Z,18.98
2023-04-07T23:53:59.241Z,18.08
2023-04-07T23:56:26.287Z,18.98
2023-04-07T23:58:53.437Z,20.85
